Terminal Aerodrome Forecast
Issued by NWS

Home | Current Version | Previous Version | Text Only | Print | Product List | Glossary On
Versions: 1 2 3 4 5 6 7 8 9 10 11 12 13 14 15
000
FTUS42 TJSJ 260728 AAA
TAFIST
TAF AMD
TIST 260728Z 2607/2706 16007KT P6SM VCSH FEW018 FEW025
      TEMPO 2609/2611 SCT018 BKN025
     FM261300 19010KT P6SM SCT025
     FM261800 18005KT P6SM SCT024 SCT035 BKN050
     FM262300 15006KT P6SM FEW020 FEW025=

USA.gov is the U.S. government's official web portal to all federal, state and local government web resources and services.